createdAt,value
2023-04-25T00:00:33.780Z,94628.00
2023-04-25T00:03:00.149Z,94620.60
2023-04-25T00:05:27.530Z,94621.80
2023-04-25T00:07:53.611Z,94619.00
2023-04-25T00:10:20.839Z,94615.40
2023-04-25T00:12:46.771Z,94612.80
2023-04-25T00:15:12.829Z,94625.20
2023-04-25T00:17:38.759Z,94630.40
2023-04-25T00:20:06.798Z,94631.20
2023-04-25T00:22:35.073Z,94634.20
2023-04-25T00:25:01.061Z,94636.60
2023-04-25T00:27:27.154Z,94633.20
2023-04-25T00:29:53.000Z,94630.60
2023-04-25T00:32:18.913Z,94633.40
2023-04-25T00:34:44.862Z,94629.40
2023-04-25T00:37:10.803Z,94624.40
2023-04-25T00:39:36.750Z,94622.80
2023-04-25T00:42:03.441Z,94625.00
2023-04-25T00:44:34.994Z,94622.60
2023-04-25T00:47:02.457Z,94617.20
2023-04-25T00:49:28.366Z,94618.00
2023-04-25T00:51:54.866Z,94617.60
2023-04-25T00:54:21.055Z,94613.40
2023-04-25T00:56:47.004Z,94614.20
2023-04-25T00:59:13.890Z,94608.40
2023-04-25T01:01:40.486Z,94604.80
2023-04-25T01:04:06.592Z,94607.60
2023-04-25T01:06:33.237Z,94611.20
2023-04-25T01:09:00.187Z,94612.00
2023-04-25T01:11:26.090Z,94618.80
2023-04-25T01:13:52.395Z,94618.40
2023-04-25T01:16:18.982Z,94613.80
2023-04-25T01:18:46.073Z,94614.60
2023-04-25T01:21:13.632Z,94613.00
2023-04-25T01:23:41.457Z,94610.80
2023-04-25T01:26:10.717Z,94602.60
2023-04-25T01:28:38.174Z,94606.80
2023-04-25T01:31:06.173Z,94608.20
2023-04-25T01:33:32.173Z,94606.40
2023-04-25T01:35:58.076Z,94604.80
2023-04-25T01:38:24.104Z,94598.40
2023-04-25T01:40:51.682Z,94594.80
2023-04-25T01:43:19.244Z,94591.40
2023-04-25T01:45:45.235Z,94595.80
2023-04-25T01:48:14.292Z,94602.20
2023-04-25T01:50:41.352Z,94598.40
2023-04-25T01:53:09.980Z,94592.00
2023-04-25T01:55:35.876Z,94591.40
2023-04-25T01:58:10.195Z,94594.40
2023-04-25T02:00:54.739Z,94598.80
2023-04-25T02:03:20.838Z,94598.20
2023-04-25T02:05:46.844Z,94595.80
2023-04-25T02:08:13.565Z,94594.80
2023-04-25T02:10:39.618Z,94586.40
2023-04-25T02:13:17.686Z,94587.20
2023-04-25T02:16:02.256Z,94587.40
2023-04-25T02:18:29.840Z,94595.60
2023-04-25T02:20:55.783Z,94596.60
2023-04-25T02:23:21.749Z,94594.80
2023-04-25T02:25:47.791Z,94595.80
2023-04-25T02:28:13.724Z,94594.80
2023-04-25T02:30:39.897Z,94594.20
2023-04-25T02:33:05.882Z,94589.40
2023-04-25T02:35:31.957Z,94588.60
2023-04-25T02:37:57.898Z,94586.20
2023-04-25T02:40:23.935Z,94584.80
2023-04-25T02:42:49.954Z,94580.20
2023-04-25T02:45:16.009Z,94578.20
2023-04-25T02:47:42.044Z,94579.00
2023-04-25T02:50:08.434Z,94579.40
2023-04-25T02:52:34.775Z,94581.60
2023-04-25T02:55:11.198Z,94582.20
2023-04-25T02:57:37.197Z,94581.20
2023-04-25T03:00:05.781Z,94580.20
2023-04-25T03:02:31.776Z,94588.00
2023-04-25T03:04:58.521Z,94586.60
2023-04-25T03:07:24.555Z,94587.20
2023-04-25T03:09:50.449Z,94587.00
2023-04-25T03:12:16.454Z,94582.80
2023-04-25T03:14:42.845Z,94575.00
2023-04-25T03:17:08.768Z,94577.80
2023-04-25T03:19:34.810Z,94579.80
2023-04-25T03:22:01.343Z,94572.40
2023-04-25T03:24:28.546Z,94560.20
2023-04-25T03:26:54.573Z,94559.40
2023-04-25T03:29:24.637Z,94562.80
2023-04-25T03:31:51.445Z,94557.40
2023-04-25T03:34:18.836Z,94560.40
2023-04-25T03:36:44.955Z,94560.60
2023-04-25T03:39:11.145Z,94565.60
2023-04-25T03:41:37.552Z,94567.60
2023-04-25T03:44:08.469Z,94569.80
2023-04-25T03:46:35.613Z,94568.00
2023-04-25T03:49:01.905Z,94568.20
2023-04-25T03:51:40.793Z,94569.40
2023-04-25T03:54:07.658Z,94571.60
2023-04-25T03:56:36.375Z,94575.20
2023-04-25T03:59:09.475Z,94566.20
2023-04-25T04:01:35.681Z,94573.80
2023-04-25T04:04:01.697Z,94576.60
2023-04-25T04:06:28.985Z,94579.20
2023-04-25T04:09:03.580Z,94575.00
2023-04-25T04:11:32.665Z,94572.60
2023-04-25T04:13:58.639Z,94567.80
2023-04-25T04:16:25.292Z,94569.40
2023-04-25T04:18:51.230Z,94565.80
2023-04-25T04:21:17.087Z,94573.80
2023-04-25T04:23:42.963Z,94570.40
2023-04-25T04:26:10.557Z,94570.20
2023-04-25T04:28:46.058Z,94564.80
2023-04-25T04:31:22.851Z,94560.00
2023-04-25T04:33:49.089Z,94558.00
2023-04-25T04:36:16.152Z,94565.00
2023-04-25T04:38:42.794Z,94566.80
2023-04-25T04:41:16.471Z,94572.40
2023-04-25T04:43:56.237Z,94573.40
2023-04-25T04:46:42.378Z,94573.80
2023-04-25T04:49:31.108Z,94583.20
2023-04-25T04:52:23.254Z,94584.60
2023-04-25T04:55:21.164Z,94576.80
2023-04-25T04:58:13.381Z,94574.40
2023-04-25T05:01:12.502Z,94572.60
2023-04-25T05:04:03.051Z,94566.80
2023-04-25T05:06:41.330Z,94559.00
2023-04-25T05:09:16.207Z,94567.20
2023-04-25T05:12:14.377Z,94569.00
2023-04-25T05:14:59.112Z,94567.80
2023-04-25T05:17:43.981Z,94568.60
2023-04-25T05:20:28.629Z,94569.00
2023-04-25T05:23:13.189Z,94569.00
2023-04-25T05:26:15.094Z,94568.60
2023-04-25T05:29:04.573Z,94567.80
2023-04-25T05:31:42.511Z,94568.80
2023-04-25T05:34:11.541Z,94562.00
2023-04-25T05:36:48.685Z,94563.40
2023-04-25T05:39:17.636Z,94567.00
2023-04-25T05:42:16.037Z,94566.40
2023-04-25T05:44:54.091Z,94558.40
2023-04-25T05:47:43.305Z,94563.00
2023-04-25T05:50:14.897Z,94563.60
2023-04-25T05:52:53.537Z,94565.20
2023-04-25T05:55:31.236Z,94565.20
2023-04-25T05:57:58.912Z,94576.60
2023-04-25T06:00:25.220Z,94589.00
2023-04-25T06:02:51.281Z,94594.60
2023-04-25T06:05:17.955Z,94586.80
2023-04-25T06:07:45.238Z,94591.40
2023-04-25T06:10:11.425Z,94595.20
2023-04-25T06:12:38.666Z,94591.00
2023-04-25T06:15:16.478Z,94584.00
2023-04-25T06:17:52.402Z,94576.60
2023-04-25T06:20:18.547Z,94571.40
2023-04-25T06:22:44.377Z,94574.00
2023-04-25T06:25:10.403Z,94569.40
2023-04-25T06:27:36.353Z,94569.80
2023-04-25T06:30:03.123Z,94569.80
2023-04-25T06:32:30.555Z,94567.20
2023-04-25T06:34:58.334Z,94560.60
2023-04-25T06:37:24.203Z,94563.00
2023-04-25T06:39:50.605Z,94561.60
2023-04-25T06:42:16.648Z,94566.20
2023-04-25T06:44:51.412Z,94565.20
2023-04-25T06:47:17.591Z,94563.00
2023-04-25T06:49:43.639Z,94560.00
2023-04-25T06:52:10.993Z,94553.00
2023-04-25T06:54:37.062Z,94550.40
2023-04-25T06:57:11.822Z,94535.20
2023-04-25T06:59:37.766Z,94549.00
2023-04-25T07:02:04.074Z,94550.00
2023-04-25T07:04:31.293Z,94549.20
2023-04-25T07:06:58.263Z,94554.20
2023-04-25T07:09:34.168Z,94550.80
2023-04-25T07:12:02.001Z,94555.80
2023-04-25T07:14:28.457Z,94554.40
2023-04-25T07:16:57.024Z,94550.20
2023-04-25T07:19:27.040Z,94551.00
2023-04-25T07:21:54.389Z,94554.00
2023-04-25T07:24:20.689Z,94552.00
2023-04-25T07:26:47.241Z,94550.60
2023-04-25T07:29:37.859Z,94546.40
2023-04-25T07:32:05.088Z,94541.40
2023-04-25T07:34:32.303Z,94540.80
2023-04-25T07:36:59.718Z,94544.80
2023-04-25T07:39:27.115Z,94537.80
2023-04-25T07:41:55.379Z,94539.60
2023-04-25T07:44:26.209Z,94533.20
2023-04-25T07:46:52.176Z,94529.60
2023-04-25T07:49:18.121Z,94534.00
2023-04-25T07:51:44.178Z,94534.60
2023-04-25T07:54:15.733Z,94519.20
2023-04-25T07:56:52.741Z,94511.60
2023-04-25T07:59:23.380Z,94506.40
2023-04-25T08:01:49.451Z,94502.00
2023-04-25T08:04:15.807Z,94500.20
2023-04-25T08:07:07.939Z,94494.00
2023-04-25T08:10:00.158Z,94501.40
2023-04-25T08:12:29.237Z,94492.60
2023-04-25T08:14:55.842Z,94493.00
2023-04-25T08:17:22.895Z,94494.80
2023-04-25T08:19:49.686Z,94506.80
2023-04-25T08:22:22.492Z,94506.20
2023-04-25T08:24:53.271Z,94513.00
2023-04-25T08:27:21.927Z,94514.40
2023-04-25T08:29:48.045Z,94513.20
2023-04-25T08:32:14.541Z,94516.00
2023-04-25T08:34:44.387Z,94518.20
2023-04-25T08:37:10.534Z,94519.60
2023-04-25T08:39:40.046Z,94516.40
2023-04-25T08:42:39.688Z,94513.00
2023-04-25T08:45:07.348Z,94507.80
2023-04-25T08:47:39.002Z,94517.80
2023-04-25T08:50:06.894Z,94515.80
2023-04-25T08:52:46.364Z,94516.60
2023-04-25T08:55:13.587Z,94511.40
2023-04-25T08:57:43.085Z,94506.40
2023-04-25T09:00:12.720Z,94503.60
2023-04-25T09:02:40.979Z,94506.40
2023-04-25T09:05:10.301Z,94510.00
2023-04-25T09:07:36.524Z,94503.40
2023-04-25T09:10:03.791Z,94508.80
2023-04-25T09:12:32.166Z,94505.80
2023-04-25T09:15:11.902Z,94504.60
2023-04-25T09:17:59.112Z,94511.80
2023-04-25T09:20:30.260Z,94519.60
2023-04-25T09:23:06.012Z,94512.00
2023-04-25T09:25:39.187Z,94525.60
2023-04-25T09:28:07.869Z,94524.80
2023-04-25T09:30:36.906Z,94527.80
2023-04-25T09:33:13.049Z,94524.20
2023-04-25T09:35:45.572Z,94536.60
2023-04-25T09:38:23.173Z,94536.00
2023-04-25T09:41:06.418Z,94542.00
2023-04-25T09:43:38.575Z,94544.80
2023-04-25T09:46:11.449Z,94548.40
2023-04-25T09:48:40.654Z,94545.20
2023-04-25T09:51:16.840Z,94546.20
2023-04-25T09:53:47.313Z,94546.80
2023-04-25T09:56:20.388Z,94551.00
2023-04-25T09:58:50.832Z,94553.60
2023-04-25T10:01:17.224Z,94554.20
2023-04-25T10:03:53.130Z,94553.20
2023-04-25T10:06:32.202Z,94549.80
2023-04-25T10:08:59.127Z,94552.80
2023-04-25T10:11:27.163Z,94553.20
2023-04-25T10:13:53.403Z,94553.40
2023-04-25T10:16:20.729Z,94550.40
2023-04-25T10:18:46.691Z,94547.40
2023-04-25T10:21:14.898Z,94543.60
2023-04-25T10:23:41.477Z,94539.80
2023-04-25T10:26:12.837Z,94539.60
2023-04-25T10:29:02.474Z,94532.40
2023-04-25T10:31:31.136Z,94535.00
2023-04-25T10:33:57.916Z,94545.80
2023-04-25T10:36:27.610Z,94554.00
2023-04-25T10:38:54.695Z,94571.00
2023-04-25T10:41:23.232Z,94577.60
2023-04-25T10:43:52.853Z,94580.60
2023-04-25T10:46:26.892Z,94580.60
2023-04-25T10:48:57.260Z,94583.00
2023-04-25T10:51:43.459Z,94593.40
2023-04-25T10:54:20.900Z,94591.00
2023-04-25T10:56:51.410Z,94598.40
2023-04-25T10:59:20.036Z,94605.40
2023-04-25T11:01:57.034Z,94608.80
2023-04-25T11:04:36.103Z,94614.40
2023-04-25T11:07:11.636Z,94613.80
2023-04-25T11:09:41.394Z,94623.40
2023-04-25T11:12:12.093Z,94627.00
2023-04-25T11:14:38.073Z,94630.20
2023-04-25T11:17:04.140Z,94633.80
2023-04-25T11:19:30.873Z,94637.60
2023-04-25T11:21:59.929Z,94637.80
2023-04-25T11:24:31.068Z,94642.60
2023-04-25T11:26:59.328Z,94647.00
2023-04-25T11:29:30.216Z,94648.60
2023-04-25T11:31:58.254Z,94652.00
2023-04-25T11:34:25.764Z,94653.40
2023-04-25T11:36:53.074Z,94653.20
2023-04-25T11:39:20.082Z,94656.20
2023-04-25T11:41:47.458Z,94661.80
2023-04-25T11:44:16.937Z,94661.80
2023-04-25T11:46:43.762Z,94664.60
2023-04-25T11:49:09.984Z,94674.80
2023-04-25T11:51:44.469Z,94680.40
2023-04-25T11:54:12.165Z,94689.40
2023-04-25T11:56:42.700Z,94688.20
2023-04-25T11:59:08.852Z,94688.60
2023-04-25T12:01:40.067Z,94698.60
2023-04-25T12:04:22.108Z,94694.40
2023-04-25T12:06:54.553Z,94692.20
2023-04-25T12:09:33.468Z,94702.00
2023-04-25T12:12:04.387Z,94703.20
2023-04-25T12:14:34.103Z,94701.20
2023-04-25T12:17:04.165Z,94701.20
2023-04-25T12:19:40.662Z,94703.20
2023-04-25T12:22:21.992Z,94708.60
2023-04-25T12:24:48.007Z,94703.20
2023-04-25T12:27:16.942Z,94704.80
2023-04-25T12:29:53.122Z,94703.40
2023-04-25T12:32:19.052Z,94706.00
2023-04-25T12:34:45.757Z,94704.20
2023-04-25T12:37:12.123Z,94705.00
2023-04-25T12:39:38.086Z,94708.60
2023-04-25T12:42:04.321Z,94704.20
2023-04-25T12:44:31.199Z,94704.40
2023-04-25T12:46:57.138Z,94704.80
2023-04-25T12:49:23.943Z,94710.40
2023-04-25T12:51:51.811Z,94715.00
2023-04-25T12:54:17.854Z,94713.80
2023-04-25T12:56:43.795Z,94717.80
2023-04-25T12:59:09.753Z,94720.80
2023-04-25T13:01:36.584Z,94724.60
2023-04-25T13:04:03.607Z,94726.20
2023-04-25T13:06:32.570Z,94731.20
2023-04-25T13:08:58.443Z,94734.40
2023-04-25T13:11:24.522Z,94739.40
2023-04-25T13:13:50.761Z,94736.20
2023-04-25T13:16:17.615Z,94744.00
2023-04-25T13:18:43.667Z,94744.40
2023-04-25T13:21:11.935Z,94742.00
2023-04-25T13:23:37.913Z,94745.40
2023-04-25T13:26:04.077Z,94746.80
2023-04-25T13:28:30.146Z,94742.60
2023-04-25T13:30:56.154Z,94746.00
2023-04-25T13:33:22.116Z,94749.60
2023-04-25T13:35:57.512Z,94748.40
2023-04-25T13:38:25.071Z,94756.80
2023-04-25T13:40:52.941Z,94761.20
2023-04-25T13:43:22.185Z,94770.40
2023-04-25T13:45:50.079Z,94775.60
2023-04-25T13:48:16.109Z,94775.60
2023-04-25T13:50:42.019Z,94775.00
2023-04-25T13:53:07.988Z,94778.80
2023-04-25T13:55:39.321Z,94777.80
2023-04-25T13:58:08.054Z,94777.80
2023-04-25T14:00:39.161Z,94784.20
2023-04-25T14:03:07.533Z,94787.80
2023-04-25T14:05:38.153Z,94784.80
2023-04-25T14:08:09.593Z,94789.00
2023-04-25T14:10:36.610Z,94791.00
2023-04-25T14:13:03.394Z,94795.00
2023-04-25T14:15:32.133Z,94791.20
2023-04-25T14:17:58.350Z,94797.20
2023-04-25T14:20:24.459Z,94800.80
2023-04-25T14:22:50.431Z,94793.20
2023-04-25T14:25:16.348Z,94799.40
2023-04-25T14:27:42.192Z,94796.60
2023-04-25T14:30:09.894Z,94793.60
2023-04-25T14:32:35.978Z,94795.40
2023-04-25T14:35:01.989Z,94791.60
2023-04-25T14:37:27.904Z,94790.80
2023-04-25T14:39:53.814Z,94790.80
2023-04-25T14:42:19.665Z,94793.20
2023-04-25T14:44:45.823Z,94792.80
2023-04-25T14:47:11.759Z,94797.40
2023-04-25T14:49:37.665Z,94798.20
2023-04-25T14:52:03.823Z,94798.60
2023-04-25T14:54:29.756Z,94802.80
2023-04-25T14:56:55.692Z,94801.00
2023-04-25T14:59:21.807Z,94803.00
2023-04-25T15:01:47.922Z,94798.00
2023-04-25T15:04:14.608Z,94803.40
2023-04-25T15:06:40.591Z,94801.00
2023-04-25T15:09:06.743Z,94800.80
2023-04-25T15:11:32.859Z,94803.20
2023-04-25T15:13:58.790Z,94805.60
2023-04-25T15:16:24.696Z,94810.60
2023-04-25T15:18:50.652Z,94816.20
2023-04-25T15:21:16.626Z,94821.40
2023-04-25T15:23:42.598Z,94821.40
2023-04-25T15:26:08.749Z,94823.40
2023-04-25T15:28:34.695Z,94827.80
2023-04-25T15:31:00.967Z,94827.40
2023-04-25T15:33:26.891Z,94836.40
2023-04-25T15:35:52.765Z,94833.20
2023-04-25T15:38:19.104Z,94832.40
2023-04-25T15:40:45.643Z,94829.00
2023-04-25T15:43:15.146Z,94831.20
2023-04-25T15:45:41.282Z,94832.20
2023-04-25T15:48:07.198Z,94840.80
2023-04-25T15:50:33.734Z,94840.80
2023-04-25T15:52:59.935Z,94837.80
2023-04-25T15:55:26.150Z,94845.60
2023-04-25T15:57:52.495Z,94847.00
2023-04-25T16:00:21.551Z,94853.20
2023-04-25T16:02:48.101Z,94859.80
2023-04-25T16:05:14.866Z,94859.80
2023-04-25T16:07:43.393Z,94861.20
2023-04-25T16:10:11.203Z,94867.00
2023-04-25T16:12:40.488Z,94865.80
2023-04-25T16:15:07.142Z,94868.40
2023-04-25T16:17:33.257Z,94869.20
2023-04-25T16:20:01.238Z,94875.80
2023-04-25T16:22:27.502Z,94879.80
2023-04-25T16:24:53.391Z,94875.20
2023-04-25T16:27:19.341Z,94880.00
2023-04-25T16:29:45.357Z,94876.80
2023-04-25T16:32:12.582Z,94881.40
2023-04-25T16:34:38.437Z,94877.00
2023-04-25T16:37:04.259Z,94877.00
2023-04-25T16:39:30.122Z,94878.80
2023-04-25T16:41:56.028Z,94876.40
2023-04-25T16:44:21.914Z,94880.20
2023-04-25T16:46:48.213Z,94881.40
2023-04-25T16:49:14.325Z,94879.00
2023-04-25T16:51:41.629Z,94879.80
2023-04-25T16:54:07.888Z,94881.00
2023-04-25T16:56:33.911Z,94887.60
2023-04-25T16:58:59.833Z,94893.80
2023-04-25T17:01:25.864Z,94898.80
2023-04-25T17:03:52.295Z,94900.80
2023-04-25T17:06:18.542Z,94896.60
2023-04-25T17:08:44.358Z,94899.40
2023-04-25T17:11:10.575Z,94892.40
2023-04-25T17:13:36.822Z,94895.60
2023-04-25T17:16:03.787Z,94898.40
2023-04-25T17:18:29.774Z,94904.20
2023-04-25T17:20:55.799Z,94905.40
2023-04-25T17:23:21.909Z,94912.00
2023-04-25T17:25:47.918Z,94917.00
2023-04-25T17:28:13.919Z,94921.80
2023-04-25T17:30:41.530Z,94921.40
2023-04-25T17:33:08.061Z,94923.00
2023-04-25T17:35:34.263Z,94929.20
2023-04-25T17:38:00.201Z,94934.80
2023-04-25T17:40:26.133Z,94937.40
2023-04-25T17:42:52.217Z,94941.40
2023-04-25T17:45:18.174Z,94948.20
2023-04-25T17:47:44.238Z,94951.20
2023-04-25T17:50:12.689Z,94954.20
2023-04-25T17:52:38.786Z,94958.80
2023-04-25T17:55:06.374Z,94960.60
2023-04-25T17:57:32.513Z,94960.00
2023-04-25T17:59:58.379Z,94960.00
2023-04-25T18:02:24.592Z,94959.40
2023-04-25T18:04:51.840Z,94961.20
2023-04-25T18:07:17.772Z,94961.60
2023-04-25T18:09:44.520Z,94969.20
2023-04-25T18:12:11.147Z,94973.20
2023-04-25T18:14:37.111Z,94978.00
2023-04-25T18:17:03.937Z,94991.20
2023-04-25T18:19:29.762Z,95008.40
2023-04-25T18:21:55.926Z,95012.20
2023-04-25T18:24:26.309Z,95013.60
2023-04-25T18:26:54.223Z,95014.60
2023-04-25T18:29:32.090Z,95017.60
2023-04-25T18:31:59.379Z,95019.80
2023-04-25T18:34:27.430Z,95021.40
2023-04-25T18:36:55.578Z,95026.20
2023-04-25T18:39:23.873Z,95025.60
2023-04-25T18:41:56.476Z,95032.40
2023-04-25T18:44:27.310Z,95033.40
2023-04-25T18:46:53.228Z,95036.40
2023-04-25T18:49:19.366Z,95042.20
2023-04-25T18:51:46.102Z,95045.80
2023-04-25T18:54:12.098Z,95048.80
2023-04-25T18:56:37.982Z,95048.20
2023-04-25T18:59:04.039Z,95050.00
2023-04-25T19:01:30.185Z,95050.20
2023-04-25T19:03:57.471Z,95052.40
2023-04-25T19:06:27.229Z,95053.00
2023-04-25T19:08:54.968Z,95058.80
2023-04-25T19:11:21.822Z,95060.60
2023-04-25T19:13:51.648Z,95057.60
2023-04-25T19:16:18.202Z,95067.40
2023-04-25T19:18:45.931Z,95068.40
2023-04-25T19:21:12.360Z,95066.80
2023-04-25T19:23:38.240Z,95074.80
2023-04-25T19:26:04.128Z,95077.00
2023-04-25T19:28:31.198Z,95078.20
2023-04-25T19:30:59.182Z,95078.40
2023-04-25T19:33:25.131Z,95081.60
2023-04-25T19:35:51.522Z,95084.20
2023-04-25T19:38:17.539Z,95084.20
2023-04-25T19:40:43.891Z,95082.00
2023-04-25T19:43:10.476Z,95084.40
2023-04-25T19:45:36.986Z,95090.20
2023-04-25T19:48:08.058Z,95088.60
2023-04-25T19:50:34.157Z,95085.60
2023-04-25T19:53:00.837Z,95086.00
2023-04-25T19:55:27.570Z,95088.60
2023-04-25T19:57:53.465Z,95088.40
2023-04-25T20:00:21.013Z,95083.00
2023-04-25T20:02:47.167Z,95081.60
2023-04-25T20:05:15.556Z,95076.20
2023-04-25T20:07:41.832Z,95076.60
2023-04-25T20:10:12.925Z,95078.80
2023-04-25T20:12:39.750Z,95074.40
2023-04-25T20:15:09.375Z,95076.20
2023-04-25T20:17:35.346Z,95076.00
2023-04-25T20:20:01.432Z,95071.20
2023-04-25T20:22:31.163Z,95065.00
2023-04-25T20:24:57.072Z,95070.40
2023-04-25T20:27:22.919Z,95077.00
2023-04-25T20:29:48.780Z,95077.00
2023-04-25T20:32:14.691Z,95079.20
2023-04-25T20:34:41.482Z,95079.60
2023-04-25T20:37:08.436Z,95087.80
2023-04-25T20:39:35.440Z,95083.20
2023-04-25T20:42:02.330Z,95094.80
2023-04-25T20:44:28.200Z,95103.20
2023-04-25T20:46:54.134Z,95103.60
2023-04-25T20:49:20.188Z,95098.80
2023-04-25T20:51:46.281Z,95100.00
2023-04-25T20:54:12.916Z,95099.80
2023-04-25T20:56:39.487Z,95095.60
2023-04-25T20:59:05.341Z,95099.20
2023-04-25T21:01:31.301Z,95100.20
2023-04-25T21:03:57.511Z,95097.40
2023-04-25T21:06:24.110Z,95102.60
2023-04-25T21:08:50.362Z,95102.60
2023-04-25T21:11:16.674Z,95103.80
2023-04-25T21:13:42.751Z,95106.20
2023-04-25T21:16:08.711Z,95106.80
2023-04-25T21:18:34.670Z,95110.40
2023-04-25T21:21:03.587Z,95108.00
2023-04-25T21:23:30.198Z,95110.40
2023-04-25T21:25:56.160Z,95113.00
2023-04-25T21:28:23.080Z,95112.00
2023-04-25T21:30:49.736Z,95113.20
2023-04-25T21:33:15.788Z,95110.00
2023-04-25T21:35:41.688Z,95106.80
2023-04-25T21:38:07.608Z,95104.40
2023-04-25T21:40:34.530Z,95102.80
2023-04-25T21:43:01.678Z,95101.00
2023-04-25T21:45:31.066Z,95110.20
2023-04-25T21:47:57.553Z,95107.20
2023-04-25T21:50:23.901Z,95108.00
2023-04-25T21:52:50.294Z,95107.00
2023-04-25T21:55:16.454Z,95105.20
2023-04-25T21:57:42.499Z,95099.60
2023-04-25T22:00:23.976Z,95103.20
2023-04-25T22:02:57.196Z,95103.20
2023-04-25T22:05:25.916Z,95099.20
2023-04-25T22:07:56.430Z,95099.20
2023-04-25T22:10:23.331Z,95100.60
2023-04-25T22:12:50.311Z,95105.80
2023-04-25T22:15:23.049Z,95114.80
2023-04-25T22:17:55.988Z,95124.20
2023-04-25T22:20:25.301Z,95122.00
2023-04-25T22:22:52.451Z,95121.20
2023-04-25T22:25:19.014Z,95124.40
2023-04-25T22:27:44.970Z,95130.40
2023-04-25T22:30:14.366Z,95131.00
2023-04-25T22:32:41.394Z,95127.60
2023-04-25T22:35:08.482Z,95130.00
2023-04-25T22:37:37.234Z,95135.20
2023-04-25T22:40:06.519Z,95131.00
2023-04-25T22:42:42.890Z,95131.60
2023-04-25T22:45:10.214Z,95130.40
2023-04-25T22:47:37.544Z,95131.00
2023-04-25T22:50:25.106Z,95131.60
2023-04-25T22:52:51.022Z,95131.20
2023-04-25T22:55:16.892Z,95134.40
2023-04-25T22:57:42.842Z,95138.20
2023-04-25T23:00:15.821Z,95141.60
2023-04-25T23:02:44.884Z,95138.80
2023-04-25T23:05:12.547Z,95144.00
2023-04-25T23:07:43.008Z,95144.80
2023-04-25T23:10:09.322Z,95144.60
2023-04-25T23:12:35.402Z,95139.00
2023-04-25T23:15:04.293Z,95142.60
2023-04-25T23:17:30.832Z,95150.40
2023-04-25T23:19:57.023Z,95149.00
2023-04-25T23:22:23.786Z,95149.00
2023-04-25T23:24:50.591Z,95152.40
2023-04-25T23:27:17.223Z,95151.40
2023-04-25T23:29:43.193Z,95149.20
2023-04-25T23:32:09.725Z,95149.80
2023-04-25T23:34:36.091Z,95148.60
2023-04-25T23:37:03.752Z,95142.80
2023-04-25T23:39:30.260Z,95134.40
2023-04-25T23:41:57.024Z,95137.00
2023-04-25T23:44:22.985Z,95144.80
2023-04-25T23:46:49.789Z,95153.00
2023-04-25T23:49:15.800Z,95157.80
2023-04-25T23:51:41.713Z,95157.20
2023-04-25T23:54:07.703Z,95160.40
2023-04-25T23:56:33.616Z,95160.00
2023-04-25T23:58:59.790Z,95154.80
